Time;durP1;ratioP1;P1;durP2;ratioP2;P2;SDS_P1;SDS_P2;PMS_P1;PMS_P2;Temp;Humidity;BMP_temperature;BMP_pressure;BME280_temperature;BME280_humidity;BME280_pressure;Samples;Min_cycle;Max_cycle;Signal;HPM_P1;HPM_P2
2022/11/14 00:00:10;;;;;;;;;;;;;;;;;;351325;28;834;-63
2022/11/14 00:00:20;;;;;;;;;;;;;;;;;;351411;28;845;-63
2022/11/14 00:00:31;;;;;;;;;;;;;;;;;;349873;28;956;-64
2022/11/14 00:00:42;;;;;;;;;;;;;;;;;;349894;28;945;-63
2022/11/14 00:00:53;;;;;;;;;;;;;;;;;;349899;28;920;-63
2022/11/14 00:01:10;;;;;;;;;;;;;;;;;;349943;28;956;-63
2022/11/14 00:01:20;;;;;;;;;;;;;;;;;;349866;28;999;-63
2022/11/14 00:01:31;;;;;;;;;;;;;;;;;;349930;28;849;-63
2022/11/14 00:01:41;;;;;;;;;;;;;;;;;;349903;28;1124;-63
2022/11/14 00:01:51;;;;;;;;;;;;;;;;;;349907;28;952;-63
2022/11/14 00:02:02;;;;;;;;;;;;;;;;;;349793;28;850;-63
2022/11/14 00:02:12;;;;;;;;;;;;;;;;;;349828;28;846;-63
2022/11/14 00:02:22;;;;;;;;;;;;;;;;;;350037;28;931;-63
2022/11/14 00:02:32;;;;;;;;;;;;;;;;;;351315;28;948;-63
2022/11/14 00:02:43;;;;;;;;;;;;;;;;;;351380;28;995;-63
2022/11/14 00:02:53;;;;;;;;;;;;;;;;;;351006;28;1426;-63
2022/11/14 00:03:04;;;;;;;;;;;;;;;;;;351187;28;1499;-63
2022/11/14 00:03:14;;;;;;;;;;;;;;;;;;351393;28;936;-63
2022/11/14 00:03:24;;;;;;;;;;;;;;;;;;351379;28;957;-63
2022/11/14 00:03:34;;;;;;;;;;;;;;;;;;351352;28;906;-63
2022/11/14 00:03:47;;;;;;;;;;;;;;;;;;351392;28;980;-63
2022/11/14 00:03:58;;;;;;;;;;;;;;;;;;351227;28;952;-63
2022/11/14 00:04:08;;;;;;;;;;;;;;;;;;351354;28;870;-63
2022/11/14 00:04:18;;;;;;;;;;;;;;;;;;351359;28;1170;-63
2022/11/14 00:04:28;;;;;;;;;;;;;;;;;;351399;28;885;-63
2022/11/14 00:04:39;;;;;;;;;;;;;;;;;;351333;28;936;-64
2022/11/14 00:04:49;;;;;;;;;;;;;;;;;;351384;28;877;-63
2022/11/14 00:04:59;;;;;;;;;;;;;;;;;;351547;28;1321;-63
2022/11/14 00:05:09;;;;;;;;;;;;;;;;;;352717;28;1043;-63
2022/11/14 00:05:20;;;;;;;;;;;;;;;;;;352848;28;869;-63
2022/11/14 00:05:30;;;;;;;;;;;;;;;;;;352858;28;872;-63
2022/11/14 00:05:42;;;;;;;;;;;;;;;;;;352748;28;963;-63
2022/11/14 00:05:52;;;;;;;;;;;;;;;;;;352807;28;916;-63
2022/11/14 00:06:06;;;;;;;;;;;;;;;;;;352802;28;922;-63
2022/11/14 00:06:16;;;;;;;;;;;;;;;;;;352640;28;921;-64
2022/11/14 00:06:26;;;;;;;;;;;;;;;;;;352787;28;782;-63
2022/11/14 00:06:36;;;;;;;;;;;;;;;;;;351906;28;1407;-63
2022/11/14 00:06:46;;;;;;;;;;;;;;;;;;352728;28;940;-63
2022/11/14 00:06:56;;;;;;;;;;;;;;;;;;352739;28;833;-63
2022/11/14 00:07:07;;;;;;;;;;;;;;;;;;352754;28;940;-64
2022/11/14 00:07:17;;;;;;;;;;;;;;;;;;352743;28;1227;-63
2022/11/14 00:07:30;;;;;;;;;;;;;;;;;;352752;28;960;-63
2022/11/14 00:07:40;;;;;;;;;;;;;;;;;;352789;28;964;-63
2022/11/14 00:07:50;;;;;;;;;;;;;;;;;;352793;28;943;-63
2022/11/14 00:08:01;;;;;;;;;;;;;;;;;;352749;28;863;-63
2022/11/14 00:08:18;;;;;;;;;;;;;;;;;;352783;28;830;-63
2022/11/14 00:08:28;;;;;;;;;;;;;;;;;;352718;28;963;-63
2022/11/14 00:08:39;;;;;;;;;;;;;;;;;;351178;28;1211;-63
2022/11/14 00:08:49;;;;;;;;;;;;;;;;;;349736;28;1011;-63
2022/11/14 00:08:59;;;;;;;;;;;;;;;;;;349923;28;905;-63
2022/11/14 00:09:09;;;;;;;;;;;;;;;;;;349872;28;1003;-63
2022/11/14 00:09:23;;;;;;;;;;;;;;;;;;349837;28;953;-63
2022/11/14 00:09:33;;;;;;;;;;;;;;;;;;349933;28;979;-63
2022/11/14 00:09:43;;;;;;;;;;;;;;;;;;349906;28;928;-63
2022/11/14 00:09:53;;;;;;;;;;;;;;;;;;349857;28;933;-63
2022/11/14 00:10:04;;;;;;;;;;;;;;;;;;349702;28;1051;-63
2022/11/14 00:10:14;;;;;;;;;;;;;;;;;;349841;28;1035;-63
2022/11/14 00:10:25;;;;;;;;;;;;;;;;;;349198;28;1282;-63
2022/11/14 00:10:35;;;;;;;;;;;;;;;;;;349126;28;1370;-63
2022/11/14 00:10:46;;;;;;;;;;;;;;;;;;350653;28;780;-63
2022/11/14 00:10:56;;;;;;;;;;;;;;;;;;351361;28;936;-63
2022/11/14 00:11:06;;;;;;;;;;;;;;;;;;351395;28;909;-63
2022/11/14 00:11:16;;;;;;;;;;;;;;;;;;351427;28;954;-63
2022/11/14 00:11:27;;;;;;;;;;;;;;;;;;351414;28;876;-63
2022/11/14 00:11:37;;;;;;;;;;;;;;;;;;351333;28;929;-63
2022/11/14 00:11:47;;;;;;;;;;;;;;;;;;351354;28;956;-63
2022/11/14 00:11:57;;;;;;;;;;;;;;;;;;351318;28;892;-63
2022/11/14 00:12:08;;;;;;;;;;;;;;;;;;351438;28;912;-63
2022/11/14 00:12:18;;;;;;;;;;;;;;;;;;351350;28;814;-63
2022/11/14 00:12:28;;;;;;;;;;;;;;;;;;351331;28;976;-63
2022/11/14 00:12:39;;;;;;;;;;;;;;;;;;351368;28;1000;-64
2022/11/14 00:12:49;;;;;;;;;;;;;;;;;;352490;28;1270;-63
2022/11/14 00:12:59;;;;;;;;;;;;;;;;;;352197;28;1178;-63
2022/11/14 00:13:09;;;;;;;;;;;;;;;;;;351375;28;921;-63
2022/11/14 00:13:19;;;;;;;;;;;;;;;;;;351388;28;991;-63
2022/11/14 00:13:30;;;;;;;;;;;;;;;;;;351389;28;915;-63
2022/11/14 00:13:40;;;;;;;;;;;;;;;;;;351321;28;983;-63
2022/11/14 00:13:50;;;;;;;;;;;;;;;;;;351351;28;1118;-63
2022/11/14 00:14:00;;;;;;;;;;;;;;;;;;351425;28;920;-63
2022/11/14 00:14:11;;;;;;;;;;;;;;;;;;351327;28;1007;-63
2022/11/14 00:14:21;;;;;;;;;;;;;;;;;;351346;28;907;-63
2022/11/14 00:14:31;;;;;;;;;;;;;;;;;;351405;28;980;-63
2022/11/14 00:14:41;;;;;;;;;;;;;;;;;;351352;28;844;-63
2022/11/14 00:14:54;;;;;;;;;;;;;;;;;;351354;28;920;-63
2022/11/14 00:15:05;;;;;;;;;;;;;;;;;;351315;28;924;-63
2022/11/14 00:15:15;;;;;;;;;;;;;;;;;;351224;28;921;-63
2022/11/14 00:15:25;;;;;;;;;;;;;;;;;;351379;28;917;-63
2022/11/14 00:15:35;;;;;;;;;;;;;;;;;;351353;28;857;-63
2022/11/14 00:15:49;;;;;;;;;;;;;;;;;;351362;28;960;-63
2022/11/14 00:16:00;;;;;;;;;;;;;;;;;;351324;28;1878;-63
2022/11/14 00:16:10;;;;;;;;;;;;;;;;;;351312;28;983;-63
2022/11/14 00:16:20;;;;;;;;;;;;;;;;;;351334;28;1041;-63
2022/11/14 00:16:30;;;;;;;;;;;;;;;;;;351313;28;811;-63
2022/11/14 00:16:40;;;;;;;;;;;;;;;;;;351383;28;1086;-63
2022/11/14 00:16:51;;;;;;;;;;;;;;;;;;351288;28;996;-64
2022/11/14 00:17:01;;;;;;;;;;;;;;;;;;351393;28;833;-63
2022/11/14 00:17:11;;;;;;;;;;;;;;;;;;351297;28;921;-63
2022/11/14 00:17:21;;;;;;;;;;;;;;;;;;351329;28;917;-63
2022/11/14 00:17:32;;;;;;;;;;;;;;;;;;351362;28;924;-63
2022/11/14 00:17:42;;;;;;;;;;;;;;;;;;351429;28;986;-63
2022/11/14 00:17:52;;;;;;;;;;;;;;;;;;351304;28;1028;-63
2022/11/14 00:18:02;;;;;;;;;;;;;;;;;;351366;28;971;-63
2022/11/14 00:18:12;;;;;;;;;;;;;;;;;;351379;28;944;-63
2022/11/14 00:18:23;;;;;;;;;;;;;;;;;;351251;28;802;-63
2022/11/14 00:18:33;;;;;;;;;;;;;;;;;;351410;28;995;-63
2022/11/14 00:18:43;;;;;;;;;;;;;;;;;;351352;28;905;-63
2022/11/14 00:18:54;;;;;;;;;;;;;;;;;;351269;28;835;-63
2022/11/14 00:19:04;;;;;;;;;;;;;;;;;;351383;28;881;-63
2022/11/14 00:19:14;;;;;;;;;;;;;;;;;;351361;28;937;-63
2022/11/14 00:19:24;;;;;;;;;;;;;;;;;;351141;28;1372;-63
2022/11/14 00:19:34;;;;;;;;;;;;;;;;;;352077;28;1243;-63
2022/11/14 00:19:45;;;;;;;;;;;;;;;;;;352770;28;916;-63
2022/11/14 00:19:55;;;;;;;;;;;;;;;;;;352727;28;983;-63
2022/11/14 00:20:06;;;;;;;;;;;;;;;;;;352779;28;948;-63
2022/11/14 00:20:16;;;;;;;;;;;;;;;;;;352784;28;1078;-63
2022/11/14 00:20:26;;;;;;;;;;;;;;;;;;352751;28;889;-63
2022/11/14 00:20:36;;;;;;;;;;;;;;;;;;352792;28;925;-63
2022/11/14 00:20:47;;;;;;;;;;;;;;;;;;352731;28;1056;-63
2022/11/14 00:20:57;;;;;;;;;;;;;;;;;;352673;28;968;-63
2022/11/14 00:21:07;;;;;;;;;;;;;;;;;;352723;28;1075;-63
2022/11/14 00:21:18;;;;;;;;;;;;;;;;;;352699;28;793;-63
2022/11/14 00:21:28;;;;;;;;;;;;;;;;;;352695;28;813;-64
2022/11/14 00:21:38;;;;;;;;;;;;;;;;;;352771;28;944;-63
2022/11/14 00:21:51;;;;;;;;;;;;;;;;;;351632;28;2031;-63
2022/11/14 00:22:01;;;;;;;;;;;;;;;;;;351318;28;969;-63
2022/11/14 00:22:11;;;;;;;;;;;;;;;;;;351384;28;929;-63
2022/11/14 00:22:21;;;;;;;;;;;;;;;;;;351328;28;979;-63
2022/11/14 00:22:32;;;;;;;;;;;;;;;;;;351313;28;1013;-63
2022/11/14 00:22:42;;;;;;;;;;;;;;;;;;351424;28;790;-63
2022/11/14 00:22:52;;;;;;;;;;;;;;;;;;351336;28;987;-63
2022/11/14 00:23:02;;;;;;;;;;;;;;;;;;351241;28;987;-63
2022/11/14 00:23:12;;;;;;;;;;;;;;;;;;351361;28;857;-63
2022/11/14 00:23:22;;;;;;;;;;;;;;;;;;351330;28;853;-63
2022/11/14 00:23:33;;;;;;;;;;;;;;;;;;351332;28;967;-63
2022/11/14 00:23:43;;;;;;;;;;;;;;;;;;351329;28;1147;-63
2022/11/14 00:23:53;;;;;;;;;;;;;;;;;;351333;28;976;-63
2022/11/14 00:24:03;;;;;;;;;;;;;;;;;;351303;28;1004;-63
2022/11/14 00:24:13;;;;;;;;;;;;;;;;;;351374;28;987;-63
2022/11/14 00:24:24;;;;;;;;;;;;;;;;;;351313;28;963;-63
2022/11/14 00:24:34;;;;;;;;;;;;;;;;;;351288;28;1052;-63
2022/11/14 00:24:44;;;;;;;;;;;;;;;;;;351353;28;849;-64
2022/11/14 00:24:54;;;;;;;;;;;;;;;;;;351375;28;924;-63
2022/11/14 00:25:04;;;;;;;;;;;;;;;;;;351233;28;1003;-63
2022/11/14 00:25:15;;;;;;;;;;;;;;;;;;351445;28;833;-63
2022/11/14 00:25:25;;;;;;;;;;;;;;;;;;351370;28;849;-63
2022/11/14 00:25:35;;;;;;;;;;;;;;;;;;351320;28;971;-64
2022/11/14 00:25:45;;;;;;;;;;;;;;;;;;351345;28;1138;-63
2022/11/14 00:25:55;;;;;;;;;;;;;;;;;;351352;28;979;-63
2022/11/14 00:26:06;;;;;;;;;;;;;;;;;;351302;28;927;-63
2022/11/14 00:26:16;;;;;;;;;;;;;;;;;;351358;28;992;-63
2022/11/14 00:26:26;;;;;;;;;;;;;;;;;;351343;28;892;-63
2022/11/14 00:26:36;;;;;;;;;;;;;;;;;;351249;28;1380;-63
2022/11/14 00:26:46;;;;;;;;;;;;;;;;;;351354;28;960;-63
2022/11/14 00:26:57;;;;;;;;;;;;;;;;;;351373;28;1000;-63
2022/11/14 00:27:07;;;;;;;;;;;;;;;;;;351305;28;782;-63
2022/11/14 00:27:17;;;;;;;;;;;;;;;;;;351301;28;972;-64
2022/11/14 00:27:27;;;;;;;;;;;;;;;;;;351386;28;865;-63
2022/11/14 00:27:38;;;;;;;;;;;;;;;;;;351334;28;1058;-63
2022/11/14 00:27:48;;;;;;;;;;;;;;;;;;351361;28;925;-63
2022/11/14 00:27:58;;;;;;;;;;;;;;;;;;351316;28;976;-63
2022/11/14 00:28:08;;;;;;;;;;;;;;;;;;351336;28;928;-64
2022/11/14 00:28:18;;;;;;;;;;;;;;;;;;351362;28;861;-63
2022/11/14 00:28:29;;;;;;;;;;;;;;;;;;351334;28;1018;-63
2022/11/14 00:28:39;;;;;;;;;;;;;;;;;;351340;28;829;-63
2022/11/14 00:28:49;;;;;;;;;;;;;;;;;;351380;28;932;-63
2022/11/14 00:28:59;;;;;;;;;;;;;;;;;;351360;28;912;-63
2022/11/14 00:29:10;;;;;;;;;;;;;;;;;;351320;28;936;-63
2022/11/14 00:29:20;;;;;;;;;;;;;;;;;;351136;28;1291;-63
2022/11/14 00:29:30;;;;;;;;;;;;;;;;;;351274;28;1116;-63
2022/11/14 00:29:41;;;;;;;;;;;;;;;;;;351385;28;920;-63
2022/11/14 00:29:51;;;;;;;;;;;;;;;;;;351394;28;770;-63
2022/11/14 00:30:01;;;;;;;;;;;;;;;;;;351279;28;1000;-63
2022/11/14 00:30:11;;;;;;;;;;;;;;;;;;351353;28;1031;-63
2022/11/14 00:30:22;;;;;;;;;;;;;;;;;;351371;28;1010;-63
2022/11/14 00:30:32;;;;;;;;;;;;;;;;;;349783;28;1309;-63
2022/11/14 00:30:46;;;;;;;;;;;;;;;;;;349843;28;1004;-63
2022/11/14 00:30:56;;;;;;;;;;;;;;;;;;349892;28;834;-63
2022/11/14 00:31:08;;;;;;;;;;;;;;;;;;349846;28;1095;-63
2022/11/14 00:31:18;;;;;;;;;;;;;;;;;;349816;28;1179;-63
2022/11/14 00:31:28;;;;;;;;;;;;;;;;;;349832;28;904;-64
2022/11/14 00:31:38;;;;;;;;;;;;;;;;;;349865;28;921;-63
2022/11/14 00:31:48;;;;;;;;;;;;;;;;;;349903;28;802;-63
2022/11/14 00:31:59;;;;;;;;;;;;;;;;;;349866;28;977;-63
2022/11/14 00:32:09;;;;;;;;;;;;;;;;;;349861;28;989;-63
2022/11/14 00:32:21;;;;;;;;;;;;;;;;;;349877;28;928;-63
2022/11/14 00:32:31;;;;;;;;;;;;;;;;;;351136;28;802;-63
2022/11/14 00:32:41;;;;;;;;;;;;;;;;;;351327;28;928;-63
2022/11/14 00:32:51;;;;;;;;;;;;;;;;;;351333;28;934;-64
2022/11/14 00:33:02;;;;;;;;;;;;;;;;;;351398;28;774;-63
2022/11/14 00:33:12;;;;;;;;;;;;;;;;;;351351;28;783;-63
2022/11/14 00:33:22;;;;;;;;;;;;;;;;;;351277;28;1031;-63
2022/11/14 00:33:33;;;;;;;;;;;;;;;;;;351297;28;908;-63
2022/11/14 00:33:43;;;;;;;;;;;;;;;;;;351342;28;818;-63
2022/11/14 00:33:53;;;;;;;;;;;;;;;;;;351367;28;905;-63
2022/11/14 00:34:04;;;;;;;;;;;;;;;;;;351376;28;842;-64
2022/11/14 00:34:14;;;;;;;;;;;;;;;;;;350921;28;1340;-64
2022/11/14 00:34:24;;;;;;;;;;;;;;;;;;352028;28;1803;-63
2022/11/14 00:34:34;;;;;;;;;;;;;;;;;;352743;28;924;-63
2022/11/14 00:34:45;;;;;;;;;;;;;;;;;;352743;28;921;-63
2022/11/14 00:34:55;;;;;;;;;;;;;;;;;;352668;28;1032;-63
2022/11/14 00:35:05;;;;;;;;;;;;;;;;;;352759;28;999;-63
2022/11/14 00:35:15;;;;;;;;;;;;;;;;;;352740;28;929;-63
2022/11/14 00:35:26;;;;;;;;;;;;;;;;;;352768;28;976;-63
2022/11/14 00:35:36;;;;;;;;;;;;;;;;;;352652;28;995;-63
2022/11/14 00:35:55;;;;;;;;;;;;;;;;;;352671;28;992;-63
2022/11/14 00:36:05;;;;;;;;;;;;;;;;;;351484;28;1905;-63
2022/11/14 00:36:16;;;;;;;;;;;;;;;;;;352689;28;932;-63
2022/11/14 00:36:26;;;;;;;;;;;;;;;;;;352767;28;924;-63
2022/11/14 00:36:36;;;;;;;;;;;;;;;;;;352815;28;427;-63
2022/11/14 00:36:46;;;;;;;;;;;;;;;;;;352720;28;912;-63
2022/11/14 00:36:56;;;;;;;;;;;;;;;;;;352680;28;857;-63
2022/11/14 00:37:07;;;;;;;;;;;;;;;;;;352809;28;1003;-63
2022/11/14 00:37:17;;;;;;;;;;;;;;;;;;352711;28;1040;-63
2022/11/14 00:37:27;;;;;;;;;;;;;;;;;;352707;28;984;-63
2022/11/14 00:37:37;;;;;;;;;;;;;;;;;;352634;28;897;-64
2022/11/14 00:37:48;;;;;;;;;;;;;;;;;;352712;28;979;-63
2022/11/14 00:37:58;;;;;;;;;;;;;;;;;;352760;28;968;-63
2022/11/14 00:38:09;;;;;;;;;;;;;;;;;;352763;28;1031;-63
2022/11/14 00:38:19;;;;;;;;;;;;;;;;;;352754;28;918;-63
2022/11/14 00:38:29;;;;;;;;;;;;;;;;;;352765;28;999;-63
2022/11/14 00:38:40;;;;;;;;;;;;;;;;;;352770;28;904;-64
2022/11/14 00:38:53;;;;;;;;;;;;;;;;;;352753;28;849;-63
2022/11/14 00:39:04;;;;;;;;;;;;;;;;;;352742;28;852;-63
2022/11/14 00:39:14;;;;;;;;;;;;;;;;;;352637;28;866;-63
2022/11/14 00:39:24;;;;;;;;;;;;;;;;;;352725;28;969;-63
2022/11/14 00:39:34;;;;;;;;;;;;;;;;;;352738;28;929;-63
2022/11/14 00:39:44;;;;;;;;;;;;;;;;;;352643;28;960;-63
2022/11/14 00:39:54;;;;;;;;;;;;;;;;;;352807;28;786;-63
2022/11/14 00:40:05;;;;;;;;;;;;;;;;;;352749;28;943;-63
2022/11/14 00:40:15;;;;;;;;;;;;;;;;;;352766;28;794;-63
2022/11/14 00:40:25;;;;;;;;;;;;;;;;;;352722;28;880;-63
2022/11/14 00:40:35;;;;;;;;;;;;;;;;;;352732;28;972;-63
2022/11/14 00:40:46;;;;;;;;;;;;;;;;;;352590;28;849;-63
2022/11/14 00:40:56;;;;;;;;;;;;;;;;;;352791;28;972;-63
2022/11/14 00:41:06;;;;;;;;;;;;;;;;;;352695;28;952;-63
2022/11/14 00:41:16;;;;;;;;;;;;;;;;;;352751;28;1007;-63
2022/11/14 00:41:26;;;;;;;;;;;;;;;;;;352397;28;1149;-63
2022/11/14 00:41:37;;;;;;;;;;;;;;;;;;352717;28;857;-63
2022/11/14 00:41:47;;;;;;;;;;;;;;;;;;352607;28;1030;-64
2022/11/14 00:41:57;;;;;;;;;;;;;;;;;;352779;28;778;-63
2022/11/14 00:42:07;;;;;;;;;;;;;;;;;;352547;28;1147;-63
2022/11/14 00:42:17;;;;;;;;;;;;;;;;;;352758;28;838;-63
2022/11/14 00:42:27;;;;;;;;;;;;;;;;;;351815;28;1794;-63
2022/11/14 00:42:38;;;;;;;;;;;;;;;;;;351373;28;1507;-63
2022/11/14 00:42:48;;;;;;;;;;;;;;;;;;351237;28;801;-63
2022/11/14 00:42:58;;;;;;;;;;;;;;;;;;351383;28;905;-64
2022/11/14 00:43:08;;;;;;;;;;;;;;;;;;351306;28;894;-63
2022/11/14 00:43:18;;;;;;;;;;;;;;;;;;351326;28;865;-63
2022/11/14 00:43:29;;;;;;;;;;;;;;;;;;351287;28;945;-63
2022/11/14 00:43:39;;;;;;;;;;;;;;;;;;351670;28;1308;-63
2022/11/14 00:43:49;;;;;;;;;;;;;;;;;;352621;28;896;-63
2022/11/14 00:43:59;;;;;;;;;;;;;;;;;;352732;28;1224;-63
2022/11/14 00:44:10;;;;;;;;;;;;;;;;;;352687;28;904;-63
2022/11/14 00:44:20;;;;;;;;;;;;;;;;;;352775;28;972;-63
2022/11/14 00:44:30;;;;;;;;;;;;;;;;;;351826;28;1357;-64
2022/11/14 00:44:40;;;;;;;;;;;;;;;;;;352749;28;889;-63
2022/11/14 00:44:51;;;;;;;;;;;;;;;;;;352670;28;1003;-63
2022/11/14 00:45:01;;;;;;;;;;;;;;;;;;352740;28;948;-63
2022/11/14 00:45:11;;;;;;;;;;;;;;;;;;352768;28;1027;-63
2022/11/14 00:45:21;;;;;;;;;;;;;;;;;;352743;28;959;-63
2022/11/14 00:45:31;;;;;;;;;;;;;;;;;;352722;28;794;-63
2022/11/14 00:45:43;;;;;;;;;;;;;;;;;;352753;28;972;-63
2022/11/14 00:45:53;;;;;;;;;;;;;;;;;;352636;28;845;-63
2022/11/14 00:46:03;;;;;;;;;;;;;;;;;;352702;28;908;-64
2022/11/14 00:46:14;;;;;;;;;;;;;;;;;;352745;28;848;-64
2022/11/14 00:46:24;;;;;;;;;;;;;;;;;;352608;28;928;-64
2022/11/14 00:46:34;;;;;;;;;;;;;;;;;;352668;28;913;-63
2022/11/14 00:46:44;;;;;;;;;;;;;;;;;;352737;28;1007;-63
2022/11/14 00:46:54;;;;;;;;;;;;;;;;;;352685;28;922;-63
2022/11/14 00:47:04;;;;;;;;;;;;;;;;;;352804;28;829;-63
2022/11/14 00:47:15;;;;;;;;;;;;;;;;;;352483;28;1044;-63
2022/11/14 00:47:25;;;;;;;;;;;;;;;;;;352752;28;837;-63
2022/11/14 00:47:35;;;;;;;;;;;;;;;;;;352751;28;936;-63
2022/11/14 00:47:45;;;;;;;;;;;;;;;;;;352687;28;941;-64
2022/11/14 00:47:56;;;;;;;;;;;;;;;;;;352671;28;1140;-64
2022/11/14 00:48:06;;;;;;;;;;;;;;;;;;352723;28;790;-63
2022/11/14 00:48:16;;;;;;;;;;;;;;;;;;352711;28;920;-63
2022/11/14 00:48:26;;;;;;;;;;;;;;;;;;352786;28;932;-63
2022/11/14 00:48:36;;;;;;;;;;;;;;;;;;352679;28;916;-63
2022/11/14 00:48:47;;;;;;;;;;;;;;;;;;352763;28;904;-64
2022/11/14 00:48:57;;;;;;;;;;;;;;;;;;352700;28;936;-63
2022/11/14 00:49:07;;;;;;;;;;;;;;;;;;352723;28;957;-63
2022/11/14 00:49:17;;;;;;;;;;;;;;;;;;352760;28;845;-63
2022/11/14 00:49:27;;;;;;;;;;;;;;;;;;352677;28;983;-64
2022/11/14 00:49:38;;;;;;;;;;;;;;;;;;352732;28;726;-63
2022/11/14 00:49:48;;;;;;;;;;;;;;;;;;352788;28;932;-63
2022/11/14 00:49:58;;;;;;;;;;;;;;;;;;352697;28;984;-63
2022/11/14 00:50:08;;;;;;;;;;;;;;;;;;352717;28;975;-63
2022/11/14 00:50:19;;;;;;;;;;;;;;;;;;352679;28;928;-64
2022/11/14 00:50:29;;;;;;;;;;;;;;;;;;352724;28;968;-63
2022/11/14 00:50:39;;;;;;;;;;;;;;;;;;352772;28;841;-64
2022/11/14 00:50:49;;;;;;;;;;;;;;;;;;352687;28;928;-64
2022/11/14 00:50:59;;;;;;;;;;;;;;;;;;352723;28;976;-63
2022/11/14 00:51:10;;;;;;;;;;;;;;;;;;352684;28;952;-64
2022/11/14 00:51:20;;;;;;;;;;;;;;;;;;352749;28;975;-63
2022/11/14 00:51:30;;;;;;;;;;;;;;;;;;352707;28;936;-63
2022/11/14 00:51:40;;;;;;;;;;;;;;;;;;352758;28;956;-63
2022/11/14 00:51:51;;;;;;;;;;;;;;;;;;351539;28;2102;-63
2022/11/14 00:52:01;;;;;;;;;;;;;;;;;;351281;28;968;-63
2022/11/14 00:52:11;;;;;;;;;;;;;;;;;;351305;28;901;-63
2022/11/14 00:52:21;;;;;;;;;;;;;;;;;;351370;28;849;-63
2022/11/14 00:52:31;;;;;;;;;;;;;;;;;;351289;28;1042;-63
2022/11/14 00:52:42;;;;;;;;;;;;;;;;;;351651;28;1441;-63
2022/11/14 00:52:52;;;;;;;;;;;;;;;;;;352646;28;869;-64
2022/11/14 00:53:02;;;;;;;;;;;;;;;;;;352669;28;960;-64
2022/11/14 00:53:12;;;;;;;;;;;;;;;;;;352768;28;909;-63
2022/11/14 00:53:23;;;;;;;;;;;;;;;;;;352803;28;900;-63
2022/11/14 00:53:33;;;;;;;;;;;;;;;;;;352555;28;999;-63
2022/11/14 00:53:43;;;;;;;;;;;;;;;;;;352707;28;885;-63
2022/11/14 00:53:53;;;;;;;;;;;;;;;;;;352741;28;909;-63
2022/11/14 00:54:03;;;;;;;;;;;;;;;;;;352672;28;937;-63
2022/11/14 00:54:14;;;;;;;;;;;;;;;;;;352685;28;972;-63
2022/11/14 00:54:25;;;;;;;;;;;;;;;;;;352720;28;983;-63
2022/11/14 00:54:35;;;;;;;;;;;;;;;;;;352677;28;932;-63
2022/11/14 00:54:45;;;;;;;;;;;;;;;;;;352726;28;976;-63
2022/11/14 00:54:56;;;;;;;;;;;;;;;;;;350953;28;2055;-64
2022/11/14 00:55:06;;;;;;;;;;;;;;;;;;351295;28;810;-63
2022/11/14 00:55:16;;;;;;;;;;;;;;;;;;351330;28;932;-63
2022/11/14 00:55:26;;;;;;;;;;;;;;;;;;351279;28;1375;-63
2022/11/14 00:55:37;;;;;;;;;;;;;;;;;;351302;28;889;-64
2022/11/14 00:55:47;;;;;;;;;;;;;;;;;;351356;28;1032;-63
2022/11/14 00:55:57;;;;;;;;;;;;;;;;;;351339;28;972;-64
2022/11/14 00:56:07;;;;;;;;;;;;;;;;;;351178;28;1914;-64
2022/11/14 00:56:18;;;;;;;;;;;;;;;;;;351323;28;1031;-63
2022/11/14 00:56:28;;;;;;;;;;;;;;;;;;351310;28;949;-63
2022/11/14 00:56:38;;;;;;;;;;;;;;;;;;351324;28;905;-63
2022/11/14 00:56:48;;;;;;;;;;;;;;;;;;351341;28;1009;-63
2022/11/14 00:56:58;;;;;;;;;;;;;;;;;;351327;28;1004;-63
2022/11/14 00:57:09;;;;;;;;;;;;;;;;;;351280;28;870;-63
2022/11/14 00:57:19;;;;;;;;;;;;;;;;;;351355;28;838;-63
2022/11/14 00:57:29;;;;;;;;;;;;;;;;;;351352;28;979;-63
2022/11/14 00:57:39;;;;;;;;;;;;;;;;;;351223;28;1015;-63
2022/11/14 00:57:49;;;;;;;;;;;;;;;;;;351343;28;870;-63
2022/11/14 00:58:00;;;;;;;;;;;;;;;;;;351316;28;972;-63
2022/11/14 00:58:10;;;;;;;;;;;;;;;;;;351257;28;957;-63
2022/11/14 00:58:20;;;;;;;;;;;;;;;;;;351316;28;917;-63
2022/11/14 00:58:30;;;;;;;;;;;;;;;;;;351316;28;833;-63
2022/11/14 00:58:40;;;;;;;;;;;;;;;;;;351341;28;995;-64
2022/11/14 00:58:51;;;;;;;;;;;;;;;;;;351339;28;968;-63
2022/11/14 00:59:01;;;;;;;;;;;;;;;;;;351348;28;1146;-63
2022/11/14 00:59:11;;;;;;;;;;;;;;;;;;351262;28;866;-64
2022/11/14 00:59:21;;;;;;;;;;;;;;;;;;351323;28;905;-63
2022/11/14 00:59:31;;;;;;;;;;;;;;;;;;351314;28;964;-63
2022/11/14 00:59:41;;;;;;;;;;;;;;;;;;351298;28;812;-63
2022/11/14 00:59:54;;;;;;;;;;;;;;;;;;351288;28;992;-63
2022/11/14 01:00:05;;;;;;;;;;;;;;;;;;351305;28;924;-63
2022/11/14 01:00:15;;;;;;;;;;;;;;;;;;351350;28;980;-63
2022/11/14 01:00:25;;;;;;;;;;;;;;;;;;351252;28;965;-63
2022/11/14 01:00:36;;;;;;;;;;;;;;;;;;351307;28;898;-63
2022/11/14 01:00:46;;;;;;;;;;;;;;;;;;351339;28;928;-63
2022/11/14 01:00:56;;;;;;;;;;;;;;;;;;351330;28;972;-63
2022/11/14 01:01:07;;;;;;;;;;;;;;;;;;351268;28;948;-63
2022/11/14 01:01:17;;;;;;;;;;;;;;;;;;351306;28;1035;-63
2022/11/14 01:01:28;;;;;;;;;;;;;;;;;;351363;28;861;-63
2022/11/14 01:01:38;;;;;;;;;;;;;;;;;;351276;28;929;-63
2022/11/14 01:01:48;;;;;;;;;;;;;;;;;;351326;28;957;-63
2022/11/14 01:01:58;;;;;;;;;;;;;;;;;;351343;28;857;-63
2022/11/14 01:02:08;;;;;;;;;;;;;;;;;;351311;28;921;-63
2022/11/14 01:02:19;;;;;;;;;;;;;;;;;;351360;28;869;-63
2022/11/14 01:02:29;;;;;;;;;;;;;;;;;;351224;28;936;-63
2022/11/14 01:02:39;;;;;;;;;;;;;;;;;;351286;28;1007;-63
2022/11/14 01:02:49;;;;;;;;;;;;;;;;;;351367;28;861;-63
2022/11/14 01:03:00;;;;;;;;;;;;;;;;;;351311;28;976;-64
2022/11/14 01:03:10;;;;;;;;;;;;;;;;;;351330;28;1008;-63
2022/11/14 01:03:20;;;;;;;;;;;;;;;;;;351283;28;999;-64
2022/11/14 01:03:30;;;;;;;;;;;;;;;;;;351293;28;1075;-63
2022/11/14 01:03:40;;;;;;;;;;;;;;;;;;351295;28;944;-63
2022/11/14 01:03:51;;;;;;;;;;;;;;;;;;351305;28;897;-63
2022/11/14 01:04:01;;;;;;;;;;;;;;;;;;351259;28;1037;-63
2022/11/14 01:04:11;;;;;;;;;;;;;;;;;;351255;28;933;-64
2022/11/14 01:04:22;;;;;;;;;;;;;;;;;;351340;28;945;-63
2022/11/14 01:04:32;;;;;;;;;;;;;;;;;;351367;28;849;-63
2022/11/14 01:04:42;;;;;;;;;;;;;;;;;;351247;28;963;-63
2022/11/14 01:04:52;;;;;;;;;;;;;;;;;;351314;28;952;-63
2022/11/14 01:05:03;;;;;;;;;;;;;;;;;;351287;28;996;-64
2022/11/14 01:05:13;;;;;;;;;;;;;;;;;;351274;28;1028;-63
2022/11/14 01:05:24;;;;;;;;;;;;;;;;;;351366;28;854;-63
2022/11/14 01:05:39;;;;;;;;;;;;;;;;;;351352;28;767;-63
2022/11/14 01:05:50;;;;;;;;;;;;;;;;;;351285;28;933;-63
2022/11/14 01:06:04;;;;;;;;;;;;;;;;;;351332;28;786;-63
2022/11/14 01:06:15;;;;;;;;;;;;;;;;;;351122;28;1175;-63
2022/11/14 01:06:25;;;;;;;;;;;;;;;;;;351331;28;995;-63
2022/11/14 01:06:35;;;;;;;;;;;;;;;;;;351295;28;1028;-63
2022/11/14 01:06:46;;;;;;;;;;;;;;;;;;351250;28;830;-63
2022/11/14 01:06:56;;;;;;;;;;;;;;;;;;351312;28;846;-63
2022/11/14 01:07:06;;;;;;;;;;;;;;;;;;351379;28;762;-64
2022/11/14 01:07:16;;;;;;;;;;;;;;;;;;351592;28;901;-63
2022/11/14 01:07:26;;;;;;;;;;;;;;;;;;351839;28;1403;-63
2022/11/14 01:07:37;;;;;;;;;;;;;;;;;;353023;28;920;-63
2022/11/14 01:07:47;;;;;;;;;;;;;;;;;;353017;28;904;-63
2022/11/14 01:07:57;;;;;;;;;;;;;;;;;;353045;28;854;-63
2022/11/14 01:08:07;;;;;;;;;;;;;;;;;;352969;28;916;-63
2022/11/14 01:08:18;;;;;;;;;;;;;;;;;;352960;28;929;-63
2022/11/14 01:08:28;;;;;;;;;;;;;;;;;;353035;28;1179;-63
2022/11/14 01:08:38;;;;;;;;;;;;;;;;;;353060;28;739;-63
2022/11/14 01:08:49;;;;;;;;;;;;;;;;;;352934;28;905;-63
2022/11/14 01:09:00;;;;;;;;;;;;;;;;;;353014;28;936;-63
2022/11/14 01:09:10;;;;;;;;;;;;;;;;;;352986;28;900;-63
2022/11/14 01:09:20;;;;;;;;;;;;;;;;;;353038;28;964;-64
2022/11/14 01:09:30;;;;;;;;;;;;;;;;;;351374;28;1245;-63
2022/11/14 01:09:40;;;;;;;;;;;;;;;;;;351645;28;932;-63
2022/11/14 01:09:51;;;;;;;;;;;;;;;;;;351691;28;844;-63
2022/11/14 01:10:01;;;;;;;;;;;;;;;;;;351502;28;984;-63
2022/11/14 01:10:11;;;;;;;;;;;;;;;;;;351566;28;941;-63
2022/11/14 01:10:22;;;;;;;;;;;;;;;;;;351633;28;940;-63
2022/11/14 01:10:32;;;;;;;;;;;;;;;;;;351630;28;843;-63
2022/11/14 01:10:43;;;;;;;;;;;;;;;;;;351598;28;928;-63
2022/11/14 01:10:53;;;;;;;;;;;;;;;;;;351478;28;1024;-64
2022/11/14 01:11:08;;;;;;;;;;;;;;;;;;351575;28;992;-63
2022/11/14 01:11:19;;;;;;;;;;;;;;;;;;351483;28;921;-63
2022/11/14 01:11:29;;;;;;;;;;;;;;;;;;351393;28;1027;-63
2022/11/14 01:11:39;;;;;;;;;;;;;;;;;;351605;28;937;-63
2022/11/14 01:11:49;;;;;;;;;;;;;;;;;;351597;28;944;-63
2022/11/14 01:11:59;;;;;;;;;;;;;;;;;;351563;28;1016;-63
2022/11/14 01:12:10;;;;;;;;;;;;;;;;;;351637;28;837;-63
2022/11/14 01:12:20;;;;;;;;;;;;;;;;;;351428;28;968;-63
2022/11/14 01:12:30;;;;;;;;;;;;;;;;;;351602;28;972;-63
2022/11/14 01:12:40;;;;;;;;;;;;;;;;;;351280;28;1055;-63
2022/11/14 01:12:51;;;;;;;;;;;;;;;;;;351617;28;936;-63
2022/11/14 01:13:01;;;;;;;;;;;;;;;;;;352203;28;1218;-63
2022/11/14 01:13:11;;;;;;;;;;;;;;;;;;352969;28;920;-63
2022/11/14 01:13:22;;;;;;;;;;;;;;;;;;352998;28;916;-64
2022/11/14 01:13:32;;;;;;;;;;;;;;;;;;353035;28;905;-63
2022/11/14 01:13:42;;;;;;;;;;;;;;;;;;352997;28;968;-63
2022/11/14 01:13:53;;;;;;;;;;;;;;;;;;353026;28;868;-63
2022/11/14 01:14:06;;;;;;;;;;;;;;;;;;352974;28;988;-64
2022/11/14 01:14:16;;;;;;;;;;;;;;;;;;353002;28;903;-63
2022/11/14 01:14:26;;;;;;;;;;;;;;;;;;353062;28;1012;-63
2022/11/14 01:14:38;;;;;;;;;;;;;;;;;;353031;28;837;-63
2022/11/14 01:14:48;;;;;;;;;;;;;;;;;;353015;28;928;-63